Time;durP1;ratioP1;P1;durP2;ratioP2;P2;SDS_P1;SDS_P2;PMS_P1;PMS_P2;Temp;Humidity;BMP_temperature;BMP_pressure;BME280_temperature;BME280_humidity;BME280_pressure;Samples;Min_cycle;Max_cycle;Signal;HPM_P1;HPM_P2
2024/02/27 00:01:17;;;;;;;;;24.75;22.25;;;;;6.59;95.79;100545.72;5068162;28;45336;-65
2024/02/27 00:03:42;;;;;;;;;19.25;14.50;;;;;6.60;95.65;100534.44;5089908;27;71518;-66
2024/02/27 00:06:07;;;;;;;;;22.00;16.75;;;;;6.61;95.44;100546.56;5065007;28;69681;-66
2024/02/27 00:08:33;;;;;;;;;20.25;16.50;;;;;6.62;95.35;100541.34;5071106;28;45642;-66
2024/02/27 00:11:01;;;;;;;;;21.25;16.50;;;;;6.66;95.19;100552.56;5077658;28;45316;-66
2024/02/27 00:13:26;;;;;;;;;26.00;20.50;;;;;6.71;94.93;100568.09;5068974;27;45468;-68
2024/02/27 00:15:51;;;;;;;;;24.50;19.50;;;;;6.73;95.12;100568.91;5060144;28;45359;-66
2024/02/27 00:18:17;;;;;;;;;24.00;19.50;;;;;6.76;94.80;100576.69;5065357;28;63144;-66
2024/02/27 00:20:43;;;;;;;;;24.00;21.50;;;;;6.78;94.64;100582.72;5065688;28;45213;-66
2024/02/27 00:23:08;;;;;;;;;24.25;22.00;;;;;6.78;94.15;100586.22;5061887;28;45157;-66
2024/02/27 00:25:33;;;;;;;;;21.00;16.00;;;;;6.79;94.24;100581.84;5061181;28;45220;-67
2024/02/27 00:27:59;;;;;;;;;26.75;21.00;;;;;6.80;94.13;100589.63;5065948;27;62470;-66
2024/02/27 00:30:24;;;;;;;;;28.50;20.75;;;;;6.81;94.32;100599.16;5063150;28;71917;-66
2024/02/27 00:32:52;;;;;;;;;27.75;19.75;;;;;6.86;94.31;100599.09;5069998;28;45284;-66
2024/02/27 00:35:17;;;;;;;;;33.25;24.75;;;;;6.88;93.92;100599.94;5061089;27;45421;-68
2024/02/27 00:37:43;;;;;;;;;35.75;26.50;;;;;6.86;93.63;100606.06;5061672;28;45455;-67
2024/02/27 00:40:08;;;;;;;;;25.50;20.00;;;;;6.83;93.49;100610.41;5073646;27;65876;-67
2024/02/27 00:42:34;;;;;;;;;35.25;24.50;;;;;6.82;93.63;100613.88;5078794;27;45407;-66
2024/02/27 00:44:59;;;;;;;;;36.50;28.25;;;;;6.82;93.38;100613.88;5074611;28;45456;-66
2024/02/27 00:47:24;;;;;;;;;38.25;25.50;;;;;6.79;93.35;100624.31;5073559;27;53262;-66
2024/02/27 00:49:50;;;;;;;;;39.25;30.00;;;;;6.80;93.27;100625.19;5073594;28;68778;-66
2024/02/27 00:52:15;;;;;;;;;34.25;23.50;;;;;6.80;93.31;100613.06;5069472;27;60106;-66
2024/02/27 00:54:40;;;;;;;;;43.25;29.25;;;;;6.79;93.47;100623.47;5078336;28;45338;-66
2024/02/27 00:57:06;;;;;;;;;33.50;25.50;;;;;6.79;93.60;100619.13;5065933;28;68236;-66
2024/02/27 00:59:31;;;;;;;;;38.25;30.00;;;;;6.79;93.60;100621.72;5062619;27;45493;-66
2024/02/27 01:01:57;;;;;;;;;30.50;29.25;;;;;6.78;93.44;100635.63;5063627;28;45976;-65
2024/02/27 01:04:22;;;;;;;;;32.00;25.75;;;;;6.79;93.25;100628.66;5069393;28;45448;-66
2024/02/27 01:06:47;;;;;;;;;35.75;29.50;;;;;6.78;93.13;100630.44;5058965;28;68106;-66
2024/02/27 01:09:13;;;;;;;;;28.50;22.75;;;;;6.71;92.60;100618.38;5059403;28;68005;-66
2024/02/27 01:11:38;;;;;;;;;28.50;25.50;;;;;6.73;92.54;100636.53;5062764;28;45220;-66
2024/02/27 01:14:03;;;;;;;;;33.00;23.00;;;;;6.68;92.58;100635.75;5063881;28;69044;-66
2024/02/27 01:16:28;;;;;;;;;36.50;29.00;;;;;6.70;92.40;100645.25;5070870;28;57405;-67
2024/02/27 01:18:54;;;;;;;;;33.50;27.75;;;;;6.69;93.11;100643.53;5074276;28;73067;-66
2024/02/27 01:21:19;;;;;;;;;36.75;28.50;;;;;6.71;92.50;100648.69;5071156;27;69111;-66
2024/02/27 01:23:44;;;;;;;;;35.25;27.50;;;;;6.72;92.33;100646.09;5084332;27;72080;-66
2024/02/27 01:26:11;;;;;;;;;34.75;29.25;;;;;6.70;92.34;100653.06;5066327;28;47364;-66
2024/02/27 01:28:37;;;;;;;;;34.75;26.50;;;;;6.71;92.25;100656.50;5061474;28;45339;-65
2024/02/27 01:31:02;;;;;;;;;20.00;16.25;;;;;6.69;91.88;100666.06;5064261;28;62761;-66
2024/02/27 01:33:29;;;;;;;;;39.00;31.00;;;;;6.68;91.79;100672.16;5060941;28;45402;-65
2024/02/27 01:35:54;;;;;;;;;25.50;18.75;;;;;6.64;91.58;100677.41;5066313;28;45523;-65
2024/02/27 01:38:19;;;;;;;;;37.25;25.75;;;;;6.61;91.55;100664.44;5066846;28;69916;-65
2024/02/27 01:40:45;;;;;;;;;29.25;23.00;;;;;6.60;91.81;100678.28;5063934;27;75503;-66
2024/02/27 01:43:23;;;;;;;;;37.25;28.00;;;;;6.59;91.84;100676.59;5065439;27;45453;-65
2024/02/27 01:45:51;;;;;;;;;30.25;22.50;;;;;6.58;91.63;100679.19;5071825;28;45293;-65
2024/02/27 01:48:17;;;;;;;;;35.75;27.75;;;;;6.56;91.66;100676.63;5061051;28;45245;-65
2024/02/27 01:50:45;;;;;;;;;36.25;27.00;;;;;6.58;91.66;100672.25;5070215;28;68213;-64
2024/02/27 01:53:12;;;;;;;;;41.25;31.50;;;;;6.59;91.34;100687.00;5067453;28;45785;-64
2024/02/27 01:55:38;;;;;;;;;32.00;29.00;;;;;6.56;91.23;100683.56;5067325;28;45232;-64
2024/02/27 01:58:03;;;;;;;;;20.50;19.25;;;;;6.56;91.47;100687.00;5070469;28;45517;-64
2024/02/27 02:00:28;;;;;;;;;30.00;29.50;;;;;6.57;91.35;100695.66;5073312;28;74549;-66
2024/02/27 02:02:54;;;;;;;;;34.25;28.50;;;;;6.58;91.35;100695.66;5070281;28;72994;-66
2024/02/27 02:05:20;;;;;;;;;39.00;27.25;;;;;6.60;91.29;100703.44;5070932;27;45346;-66
2024/02/27 02:07:45;;;;;;;;;38.00;24.50;;;;;6.60;91.34;100701.69;5059664;28;71107;-66
2024/02/27 02:10:12;;;;;;;;;33.00;27.75;;;;;6.61;91.13;100710.38;5068295;27;75690;-65
2024/02/27 02:12:37;;;;;;;;;34.25;28.00;;;;;6.58;91.00;100705.19;5065083;27;45882;-66
2024/02/27 02:15:04;;;;;;;;;31.75;25.50;;;;;6.59;90.79;100713.00;5074827;27;67592;-66
2024/02/27 02:17:29;;;;;;;;;32.50;24.00;;;;;6.57;90.58;100713.88;5069553;28;45517;-66
2024/02/27 02:19:54;;;;;;;;;37.00;28.50;;;;;6.57;90.53;100719.06;5070993;27;45358;-66
2024/02/27 02:22:20;;;;;;;;;40.75;31.00;;;;;6.56;90.22;100710.41;5063718;28;73020;-67
2024/02/27 02:24:45;;;;;;;;;37.75;27.75;;;;;6.54;90.23;100719.13;5062636;28;66327;-65
2024/02/27 02:27:15;;;;;;;;;35.00;30.00;;;;;6.54;90.25;100716.53;5066518;28;47118;-65
2024/02/27 02:29:40;;;;;;;;;24.00;20.00;;;;;6.54;90.19;100724.31;5071802;28;46560;-65
2024/02/27 02:32:06;;;;;;;;;37.00;27.25;;;;;6.56;90.42;100725.16;5063220;28;49652;-64
2024/02/27 02:34:32;;;;;;;;;31.25;29.00;;;;;6.54;90.14;100724.31;5060667;28;45678;-66
2024/02/27 02:36:57;;;;;;;;;29.75;23.75;;;;;6.53;90.14;100731.25;5062233;28;54169;-64
2024/02/27 02:39:23;;;;;;;;;37.00;30.00;;;;;6.54;90.11;100732.13;5063031;28;57282;-66
2024/02/27 02:41:48;;;;;;;;;38.75;29.25;;;;;6.53;90.01;100732.97;5071752;28;45890;-67
2024/02/27 02:44:14;;;;;;;;;35.75;28.00;;;;;6.53;90.15;100732.97;5077537;28;65684;-66
2024/02/27 02:46:39;;;;;;;;;43.50;34.00;;;;;6.53;90.24;100727.78;5074612;28;45302;-66
2024/02/27 02:49:04;;;;;;;;;28.75;24.25;;;;;6.52;90.49;100726.94;5073306;27;75229;-66
2024/02/27 02:51:33;;;;;;;;;39.50;26.25;;;;;6.52;90.18;100723.47;5079336;28;72523;-66
2024/02/27 02:53:58;;;;;;;;;38.25;29.25;;;;;6.51;90.01;100732.16;5072141;27;45391;-66
2024/02/27 02:56:23;;;;;;;;;40.00;28.25;;;;;6.50;89.83;100723.50;5061267;28;59557;-66
2024/02/27 02:58:49;;;;;;;;;29.75;25.00;;;;;6.48;89.50;100722.66;5069594;28;71995;-64
2024/02/27 03:01:14;;;;;;;;;21.00;18.50;;;;;6.45;89.56;100738.28;5067408;28;45289;-66
2024/02/27 03:03:39;;;;;;;;;32.75;24.00;;;;;6.43;89.40;100747.84;5077810;28;45217;-66
2024/02/27 03:06:05;;;;;;;;;29.75;22.00;;;;;6.42;89.51;100746.09;5066398;28;72053;-64
2024/02/27 03:08:30;;;;;;;;;37.00;31.25;;;;;6.43;89.52;100753.03;5071293;28;45411;-65
2024/02/27 03:10:56;;;;;;;;;30.50;24.25;;;;;6.41;89.22;100757.34;5068502;28;73288;-65
2024/02/27 03:13:22;;;;;;;;;38.25;25.50;;;;;6.39;89.10;100760.00;5065082;28;45312;-65
2024/02/27 03:15:47;;;;;;;;;38.75;29.50;;;;;6.36;89.15;100762.63;5067583;28;45597;-66
2024/02/27 03:18:12;;;;;;;;;39.50;28.50;;;;;6.33;89.02;100761.78;5077871;28;64596;-66
2024/02/27 03:20:38;;;;;;;;;33.50;24.75;;;;;6.37;89.26;100760.88;5071964;28;71195;-65
2024/02/27 03:23:03;;;;;;;;;36.75;21.75;;;;;6.38;89.13;100773.00;5061939;28;45303;-67
2024/02/27 03:25:29;;;;;;;;;31.25;28.50;;;;;6.36;88.95;100762.63;5064255;28;45787;-66
2024/02/27 03:27:54;;;;;;;;;42.25;29.75;;;;;6.35;88.66;100773.88;5068362;28;46286;-66
2024/02/27 03:30:20;;;;;;;;;29.50;27.50;;;;;6.33;88.67;100777.38;5067683;28;51813;-66
2024/02/27 03:32:45;;;;;;;;;31.00;26.00;;;;;6.30;88.56;100774.78;5061280;28;65437;-66
2024/02/27 03:35:10;;;;;;;;;33.75;22.50;;;;;6.25;88.36;100780.03;5063084;27;48776;-66
2024/02/27 03:37:37;;;;;;;;;32.75;25.25;;;;;6.18;88.30;100774.03;5076057;27;47190;-66
2024/02/27 03:40:03;;;;;;;;;29.75;19.50;;;;;6.19;88.36;100782.69;5061585;28;45489;-66
2024/02/27 03:42:29;;;;;;;;;44.75;28.25;;;;;6.18;88.52;100788.75;5073626;28;45465;-66
2024/02/27 03:44:54;;;;;;;;;32.75;24.00;;;;;6.15;88.67;100789.66;5071789;28;70555;-66
2024/02/27 03:47:19;;;;;;;;;33.00;27.75;;;;;6.14;88.76;100792.25;5075292;28;76417;-66
2024/02/27 03:49:45;;;;;;;;;29.50;23.50;;;;;6.14;88.64;100805.25;5063508;28;45261;-66
2024/02/27 03:52:10;;;;;;;;;38.25;28.50;;;;;6.11;88.78;100800.06;5063012;28;69227;-66
2024/02/27 03:54:36;;;;;;;;;37.25;29.25;;;;;6.12;89.01;100805.25;5065439;28;45271;-66
2024/02/27 03:57:01;;;;;;;;;27.00;22.75;;;;;6.14;88.87;100811.28;5060053;28;45290;-66
2024/02/27 03:59:26;;;;;;;;;32.00;22.25;;;;;6.14;88.68;100803.50;5064597;28;71884;-66
2024/02/27 04:01:52;;;;;;;;;36.50;26.25;;;;;6.18;88.85;100814.72;5063995;28;47277;-66
2024/02/27 04:04:17;;;;;;;;;31.00;23.00;;;;;6.19;88.82;100826.84;5067211;27;45489;-66
2024/02/27 04:06:42;;;;;;;;;35.50;27.25;;;;;6.19;88.39;100825.13;5064431;28;74484;-65
2024/02/27 04:09:08;;;;;;;;;35.00;29.25;;;;;6.18;88.38;100844.19;5067045;28;64192;-65
2024/02/27 04:11:33;;;;;;;;;35.25;27.75;;;;;6.19;88.50;100834.66;5079042;28;45317;-66
2024/02/27 04:13:59;;;;;;;;;38.25;29.50;;;;;6.21;88.46;100838.94;5075744;28;45285;-65
2024/02/27 04:16:25;;;;;;;;;35.75;25.50;;;;;6.20;88.49;100844.19;5063730;28;45427;-65
2024/02/27 04:18:50;;;;;;;;;34.25;18.25;;;;;6.18;88.27;100844.19;5069666;28;72180;-64
2024/02/27 04:21:15;;;;;;;;;40.50;32.25;;;;;6.16;88.15;100843.34;5067150;28;45370;-65
2024/02/27 04:23:41;;;;;;;;;36.50;27.75;;;;;6.17;88.27;100839.00;5094906;27;72118;-65
2024/02/27 04:26:06;;;;;;;;;26.50;23.25;;;;;6.17;87.97;100842.47;5064972;28;73570;-65
2024/02/27 04:28:32;;;;;;;;;36.75;32.00;;;;;6.16;87.99;100838.16;5067994;28;69604;-66
2024/02/27 04:30:57;;;;;;;;;36.75;29.00;;;;;6.17;88.11;100841.59;5069832;27;45509;-66
2024/02/27 04:33:22;;;;;;;;;33.50;26.75;;;;;6.15;88.10;100838.16;5071527;28;56610;-65
2024/02/27 04:35:48;;;;;;;;;37.00;31.25;;;;;6.15;88.16;100841.63;5068017;28;45417;-66
2024/02/27 04:38:13;;;;;;;;;39.75;24.75;;;;;6.17;88.30;100833.81;5077719;28;45869;-66
2024/02/27 04:40:40;;;;;;;;;42.25;30.50;;;;;6.15;88.36;100838.16;5063847;28;68130;-66
2024/02/27 04:43:05;;;;;;;;;29.50;27.00;;;;;6.14;88.59;100841.63;5060997;28;45291;-65
2024/02/27 04:45:30;;;;;;;;;27.50;23.50;;;;;6.17;88.88;100852.84;5068122;28;74224;-65
2024/02/27 04:47:56;;;;;;;;;25.25;19.50;;;;;6.19;88.64;100853.69;5065053;27;73247;-65
2024/02/27 04:50:22;;;;;;;;;41.00;33.25;;;;;6.19;88.15;100863.25;5075665;27;45294;-66
2024/02/27 04:52:47;;;;;;;;;28.00;18.75;;;;;6.19;88.29;100878.84;5074092;28;45454;-67
2024/02/27 04:55:13;;;;;;;;;38.50;29.50;;;;;6.19;88.42;100881.44;5075673;27;76482;-67
2024/02/27 04:57:38;;;;;;;;;31.00;17.75;;;;;6.18;88.14;100880.56;5073961;27;72349;-66
2024/02/27 05:00:09;;;;;;;;;35.00;28.00;;;;;6.19;88.01;100882.28;5073802;28;46800;-66
2024/02/27 05:02:35;;;;;;;;;34.50;26.75;;;;;6.19;87.99;100884.88;5068667;28;45454;-66
2024/02/27 05:05:01;;;;;;;;;24.25;21.25;;;;;6.20;87.76;100884.03;5079514;27;47052;-66
2024/02/27 05:07:26;;;;;;;;;37.50;27.75;;;;;6.20;88.21;100890.97;5065118;27;69379;-66
2024/02/27 05:09:52;;;;;;;;;30.50;22.50;;;;;6.20;87.88;100886.63;5066162;27;69194;-66
2024/02/27 05:12:17;;;;;;;;;38.00;27.75;;;;;6.23;87.76;100896.13;5075844;28;71021;-66
2024/02/27 05:14:42;;;;;;;;;36.25;28.25;;;;;6.23;87.62;100893.50;5067125;27;73354;-66
2024/02/27 05:17:08;;;;;;;;;36.75;28.75;;;;;6.21;87.37;100898.72;5069515;27;66041;-66
2024/02/27 05:19:33;;;;;;;;;34.75;25.75;;;;;6.18;87.39;100900.47;5060085;28;63186;-66
2024/02/27 05:21:58;;;;;;;;;30.50;19.00;;;;;6.17;87.19;100906.56;5065372;27;72998;-66
2024/02/27 05:24:24;;;;;;;;;34.50;26.50;;;;;6.16;87.22;100913.50;5072911;28;45346;-66
2024/02/27 05:26:49;;;;;;;;;37.25;27.50;;;;;6.15;87.40;100910.91;5068344;27;60604;-67
2024/02/27 05:29:15;;;;;;;;;28.75;19.25;;;;;6.18;87.45;100916.94;5067321;28;45355;-65
2024/02/27 05:31:40;;;;;;;;;41.50;29.50;;;;;6.16;87.24;100916.09;5073254;27;45542;-66
2024/02/27 05:34:07;;;;;;;;;20.25;14.00;;;;;6.16;87.03;100921.31;5069148;27;46306;-65
2024/02/27 05:36:33;;;;;;;;;38.25;24.00;;;;;6.14;86.99;100920.41;5080013;28;45857;-63
2024/02/27 05:38:58;;;;;;;;;29.75;25.75;;;;;6.15;87.51;100918.72;5074660;28;45429;-65
2024/02/27 05:41:23;;;;;;;;;30.00;27.00;;;;;6.17;87.09;100927.34;5076328;28;67757;-66
2024/02/27 05:43:49;;;;;;;;;28.25;24.00;;;;;6.18;87.11;100940.34;5065906;28;75510;-67
2024/02/27 05:46:15;;;;;;;;;37.25;26.25;;;;;6.17;87.03;100943.78;5079214;27;45398;-65
2024/02/27 05:48:41;;;;;;;;;40.75;25.50;;;;;6.15;87.00;100936.91;5069337;27;69568;-65
2024/02/27 05:51:08;;;;;;;;;35.25;24.75;;;;;6.17;87.15;100940.34;5059511;28;45447;-66
2024/02/27 05:53:34;;;;;;;;;25.50;23.75;;;;;6.12;86.96;100937.75;5062435;27;46081;-66
2024/02/27 05:55:59;;;;;;;;;32.00;27.00;;;;;6.16;86.80;100949.88;5076219;27;45540;-66
2024/02/27 05:58:24;;;;;;;;;19.00;12.00;;;;;6.16;86.86;100957.69;5074391;27;45415;-66
2024/02/27 06:00:51;;;;;;;;;31.50;27.75;;;;;6.18;86.88;100966.31;5078240;27;56101;-66
2024/02/27 06:03:20;;;;;;;;;31.00;25.25;;;;;6.23;87.00;100974.97;5070904;28;45477;-66
2024/02/27 06:05:45;;;;;;;;;35.75;29.00;;;;;6.24;86.69;100987.06;5064436;28;45832;-67
2024/02/27 06:08:12;;;;;;;;;32.50;29.50;;;;;6.22;86.41;100990.56;5074357;28;45210;-67
2024/02/27 06:10:38;;;;;;;;;30.00;21.75;;;;;6.20;86.38;100987.13;5077725;27;45386;-66
2024/02/27 06:13:03;;;;;;;;;37.00;24.00;;;;;6.19;86.27;100985.38;5075274;27;46257;-66
2024/02/27 06:15:29;;;;;;;;;23.50;17.50;;;;;6.16;86.04;101003.56;5068433;27;73067;-68
2024/02/27 06:17:54;;;;;;;;;33.50;28.00;;;;;6.11;85.97;101005.31;5068435;27;68305;-67
2024/02/27 06:23:03;;;;;;;;;39.50;28.75;;;;;6.07;86.42;101007.06;5080207;27;45280;-67
2024/02/27 06:25:29;;;;;;;;;28.25;22.50;;;;;6.10;86.09;101006.22;5077365;27;69493;-66
2024/02/27 06:27:54;;;;;;;;;31.25;24.00;;;;;6.04;86.09;101004.50;5079014;27;45468;-67
2024/02/27 06:30:20;;;;;;;;;37.00;30.25;;;;;6.04;86.32;101013.16;5073350;28;45467;-67
2024/02/27 06:32:45;;;;;;;;;40.00;29.50;;;;;6.04;86.57;101017.50;5070975;27;53300;-67
2024/02/27 06:35:11;;;;;;;;;36.00;28.75;;;;;6.06;86.55;101026.13;5081348;27;71996;-67
2024/02/27 06:37:36;;;;;;;;;30.75;27.75;;;;;6.03;86.81;101031.34;5070117;27;45344;-66
2024/02/27 06:40:03;;;;;;;;;45.00;27.00;;;;;6.04;86.86;101026.13;5071197;27;70011;-66
2024/02/27 06:42:34;;;;;;;;;27.25;27.25;;;;;6.06;86.80;101041.72;5066419;28;46045;-66
2024/02/27 06:45:01;;;;;;;;;33.75;23.25;;;;;6.04;86.16;101048.66;5065798;27;45916;-64
2024/02/27 06:47:27;;;;;;;;;35.00;27.00;;;;;5.97;85.99;101042.63;5074860;27;45353;-66
2024/02/27 06:49:52;;;;;;;;;41.75;34.50;;;;;5.95;86.08;101046.03;5069718;28;45317;-67
2024/02/27 06:52:17;;;;;;;;;39.75;34.75;;;;;5.89;85.87;101042.59;5051125;28;69837;-67
2024/02/27 06:54:43;;;;;;;;;33.50;22.50;;;;;5.86;86.08;101052.13;5068225;28;61609;-69
2024/02/27 06:57:08;;;;;;;;;34.50;25.25;;;;;5.79;86.38;101048.69;5065514;28;45555;-69
2024/02/27 06:59:33;;;;;;;;;43.00;33.50;;;;;5.77;86.38;101050.44;5067335;28;66644;-69
2024/02/27 07:02:00;;;;;;;;;44.50;35.75;;;;;5.83;86.74;101054.75;5070448;27;69452;-68
2024/02/27 07:04:25;;;;;;;;;42.75;31.75;;;;;5.85;86.66;101060.81;5078716;27;45223;-68
2024/02/27 07:06:50;;;;;;;;;43.50;33.75;;;;;5.87;86.71;101066.84;5074402;27;60105;-67
2024/02/27 07:09:16;;;;;;;;;40.00;32.75;;;;;5.90;86.65;101062.50;5062975;28;45694;-68
2024/02/27 07:11:41;;;;;;;;;46.00;34.25;;;;;5.90;86.83;101062.50;5067906;27;46321;-70
2024/02/27 07:14:07;;;;;;;;;39.00;30.50;;;;;5.96;86.87;101066.00;5071240;27;45192;-68
2024/02/27 07:16:32;;;;;;;;;38.75;28.00;;;;;5.97;86.98;101066.00;5071667;27;45968;-68
2024/02/27 07:18:58;;;;;;;;;51.50;36.00;;;;;6.02;86.84;101074.66;5075310;27;45450;-66
2024/02/27 07:21:23;;;;;;;;;38.67;32.00;;;;;6.02;86.84;101071.16;5063130;27;77074;-65
2024/02/27 07:23:48;;;;;;;;;44.50;32.75;;;;;6.06;86.86;101076.34;5063647;28;58759;-66
2024/02/27 07:26:13;;;;;;;;;41.00;31.00;;;;;6.08;86.92;101069.41;5062883;28;61901;-65
2024/02/27 07:28:39;;;;;;;;;47.00;34.00;;;;;6.14;86.76;101080.66;5069287;28;72243;-65
2024/02/27 07:31:04;;;;;;;;;41.50;30.50;;;;;6.14;86.60;101071.13;5060361;28;67348;-65
2024/02/27 07:33:30;;;;;;;;;49.25;36.50;;;;;6.17;86.76;101067.66;5070325;27;45537;-65
2024/02/27 07:35:55;;;;;;;;;47.50;33.25;;;;;6.21;86.57;101074.56;5079950;27;68438;-64
2024/02/27 07:38:20;;;;;;;;;39.00;30.00;;;;;6.25;86.52;101082.38;5075199;27;63289;-64
2024/02/27 07:40:46;;;;;;;;;40.50;29.25;;;;;6.26;86.33;101073.69;5066886;27;59428;-63
2024/02/27 07:43:11;;;;;;;;;37.50;24.75;;;;;6.26;85.97;101084.06;5078375;27;45296;-63
2024/02/27 07:45:36;;;;;;;;;43.33;33.33;;;;;6.23;85.86;101086.72;5066625;27;69460;-63
2024/02/27 07:48:02;;;;;;;;;47.75;37.00;;;;;6.23;85.93;101085.81;5064122;27;45497;-64
2024/02/27 07:50:28;;;;;;;;;47.25;32.00;;;;;6.26;85.92;101089.28;5061517;28;47076;-62
2024/02/27 07:52:54;;;;;;;;;45.75;35.50;;;;;6.30;85.61;101103.13;5075408;27;45520;-65
2024/02/27 07:55:19;;;;;;;;;43.00;34.75;;;;;6.30;85.40;101107.47;5067336;27;45489;-67
2024/02/27 07:57:44;;;;;;;;;41.50;32.75;;;;;6.29;85.40;101116.16;5077292;27;71990;-62
2024/02/27 08:00:10;;;;;;;;;33.75;24.25;;;;;6.30;85.13;101108.31;5072450;27;66802;-65
2024/02/27 08:02:36;;;;;;;;;36.25;29.75;;;;;6.27;84.85;101121.34;5070761;27;45458;-58
2024/02/27 08:05:03;;;;;;;;;37.75;32.75;;;;;6.20;84.92;101117.03;5071612;27;45414;-69
2024/02/27 08:07:28;;;;;;;;;35.75;31.75;;;;;6.15;84.63;101109.25;5073816;27;45588;-68
2024/02/27 08:09:53;;;;;;;;;55.00;37.50;;;;;6.17;84.63;101112.69;5073621;27;46374;-66
2024/02/27 08:12:19;;;;;;;;;33.50;30.00;;;;;6.13;84.51;101115.34;5063010;27;70365;-66
2024/02/27 08:14:44;;;;;;;;;46.50;36.00;;;;;6.10;84.72;101112.72;5076733;27;65033;-71
2024/02/27 08:17:10;;;;;;;;;43.33;37.00;;;;;6.11;84.46;101124.84;5066305;27;73267;-71
2024/02/27 08:19:35;;;;;;;;;43.00;35.25;;;;;6.08;84.72;101129.19;5074657;28;45341;-67
2024/02/27 08:22:03;;;;;;;;;45.50;33.50;;;;;6.07;84.69;101132.66;5061993;27;45301;-66
2024/02/27 08:24:29;;;;;;;;;49.25;35.50;;;;;6.10;84.95;101142.16;5059971;28;45533;-64
2024/02/27 08:26:55;;;;;;;;;45.75;36.00;;;;;6.12;84.88;101149.97;5066399;28;45645;-64
2024/02/27 08:29:20;;;;;;;;;28.50;24.00;;;;;6.12;84.46;101135.22;5080472;28;46860;-65
2024/02/27 08:31:45;;;;;;;;;43.00;36.75;;;;;6.06;84.53;101141.31;5074396;27;69329;-65
2024/02/27 08:34:11;;;;;;;;;40.00;30.50;;;;;6.08;84.79;101134.38;5067902;28;63486;-66
2024/02/27 08:36:36;;;;;;;;;38.25;29.00;;;;;6.13;84.92;101138.72;5065511;28;65816;-65
2024/02/27 08:39:02;;;;;;;;;44.25;32.50;;;;;6.18;84.65;101143.03;5066978;28;46079;-64
2024/02/27 08:41:27;;;;;;;;;29.75;23.75;;;;;6.19;84.60;101146.50;5075473;27;45384;-66
2024/02/27 08:43:53;;;;;;;;;41.50;31.75;;;;;6.19;84.41;101147.34;5070178;28;45363;-65
2024/02/27 08:46:18;;;;;;;;;39.50;33.50;;;;;6.24;84.60;101152.53;5075904;27;72141;-65
2024/02/27 08:48:45;;;;;;;;;39.75;36.00;;;;;6.29;84.56;101160.34;5062889;28;70449;-65
2024/02/27 08:51:10;;;;;;;;;47.25;32.50;;;;;6.26;84.22;101149.06;5072780;28;45814;-65
2024/02/27 08:53:36;;;;;;;;;49.00;35.33;;;;;6.26;84.26;101154.25;5069040;28;69260;-66
2024/02/27 08:56:03;;;;;;;;;36.75;30.25;;;;;6.28;84.32;101162.06;5070275;28;45332;-66
2024/02/27 08:58:28;;;;;;;;;37.50;24.75;;;;;6.27;84.15;101166.41;5072735;27;46348;-65
2024/02/27 09:00:54;;;;;;;;;37.67;31.33;;;;;6.25;84.33;101175.03;5076441;28;73516;-65
2024/02/27 09:03:19;;;;;;;;;42.50;32.50;;;;;6.24;84.08;101181.13;5061451;28;59807;-65
2024/02/27 09:05:46;;;;;;;;;34.75;29.75;;;;;6.18;83.95;101175.94;5076672;27;66541;-64
2024/02/27 09:08:14;;;;;;;;;47.75;34.75;;;;;6.19;84.52;101180.28;5080090;27;46165;-64
2024/02/27 09:10:39;;;;;;;;;41.00;31.00;;;;;6.23;84.69;101179.38;5068616;28;45411;-65
2024/02/27 09:13:04;;;;;;;;;46.50;35.00;;;;;6.25;84.55;101169.84;5072789;28;47526;-65
2024/02/27 09:15:30;;;;;;;;;38.25;31.50;;;;;6.28;84.37;101172.44;5059980;28;73529;-64
2024/02/27 09:17:55;;;;;;;;;46.25;30.75;;;;;6.32;84.16;101168.09;5070170;27;71898;-65
2024/02/27 09:20:21;;;;;;;;;40.75;33.25;;;;;6.31;84.03;101167.25;5070792;27;68463;-66
2024/02/27 09:22:46;;;;;;;;;39.50;32.25;;;;;6.32;83.85;101166.41;5072154;27;45440;-65
2024/02/27 09:25:13;;;;;;;;;40.75;35.75;;;;;6.35;83.94;101171.56;5076090;27;71295;-65
2024/02/27 09:27:38;;;;;;;;;45.00;31.50;;;;;6.41;84.04;101171.56;5073338;28;47282;-64
2024/02/27 09:30:05;;;;;;;;;35.25;28.50;;;;;6.47;83.94;101181.06;5075713;27;45368;-64
2024/02/27 09:32:30;;;;;;;;;21.25;21.25;;;;;6.51;83.65;101171.53;5068315;27;45348;-64
2024/02/27 09:34:55;;;;;;;;;44.00;30.00;;;;;6.54;83.14;101177.59;5086918;27;51056;-64
2024/02/27 09:37:22;;;;;;;;;35.25;28.50;;;;;6.55;83.05;101184.53;5070958;27;47301;-64
2024/02/27 09:39:47;;;;;;;;;37.75;31.25;;;;;6.56;82.90;101170.63;5073829;27;45467;-65
2024/02/27 09:42:13;;;;;;;;;31.75;29.50;;;;;6.61;82.94;101168.03;5072799;27;45421;-64
2024/02/27 09:44:40;;;;;;;;;34.50;22.50;;;;;6.66;82.58;101171.47;5077288;27;45349;-65
2024/02/27 09:47:10;;;;;;;;;41.00;34.25;;;;;6.67;82.69;101169.75;5069375;27;46364;-64
2024/02/27 09:49:38;;;;;;;;;42.00;30.25;;;;;6.71;82.61;101174.94;5078875;27;45252;-64
2024/02/27 09:52:05;;;;;;;;;42.25;34.25;;;;;6.76;82.53;101174.91;5072854;27;45342;-65
2024/02/27 09:54:31;;;;;;;;;38.25;26.50;;;;;6.81;82.15;101165.34;5078161;27;45307;-65
2024/02/27 09:56:57;;;;;;;;;31.50;29.75;;;;;6.86;82.17;101166.19;5074060;27;45451;-65
2024/02/27 09:59:22;;;;;;;;;39.25;29.25;;;;;6.95;82.26;101171.34;5091275;27;46918;-65
2024/02/27 10:01:51;;;;;;;;;49.50;35.00;;;;;7.07;81.72;101169.56;5098722;27;45433;-65
2024/02/27 10:04:19;;;;;;;;;31.25;26.75;;;;;7.10;81.21;101169.53;5069086;27;45270;-65
2024/02/27 10:06:46;;;;;;;;;50.25;33.75;;;;;7.20;81.45;101181.63;5074580;27;46553;-65
2024/02/27 10:09:14;;;;;;;;;36.75;27.00;;;;;7.30;80.69;101191.09;5071201;27;45469;-65
2024/02/27 10:11:39;;;;;;;;;46.00;35.00;;;;;7.38;80.36;101191.03;5079499;27;45409;-65
2024/02/27 10:14:13;;;;;;;;;38.50;30.50;;;;;7.41;80.21;101196.25;5078418;27;70457;-65
2024/02/27 10:16:38;;;;;;;;;32.75;28.75;;;;;7.41;79.50;101191.88;5085798;27;45610;-66
2024/02/27 10:19:04;;;;;;;;;33.75;25.75;;;;;7.43;79.37;101196.22;5071389;27;71700;-65
2024/02/27 10:21:30;;;;;;;;;40.25;27.75;;;;;7.45;79.44;101200.53;5071329;27;68101;-65
2024/02/27 10:23:55;;;;;;;;;37.00;28.00;;;;;7.53;79.43;101182.28;5068655;27;45319;-64
2024/02/27 10:26:21;;;;;;;;;27.50;21.25;;;;;7.60;79.30;101179.63;5063581;28;75583;-63
2024/02/27 10:28:47;;;;;;;;;39.50;28.75;;;;;7.73;79.24;101179.50;5069233;27;45334;-65
2024/02/27 10:31:16;;;;;;;;;38.25;28.00;;;;;7.88;79.10;101175.91;5079675;27;45375;-65
2024/02/27 10:33:41;;;;;;;;;40.25;27.00;;;;;7.99;79.06;101177.56;5078920;28;45805;-65
2024/02/27 10:36:08;;;;;;;;;27.25;25.00;;;;;8.06;78.31;101183.56;5073180;28;46172;-65
2024/02/27 10:38:33;;;;;;;;;33.25;29.75;;;;;8.09;76.94;101180.94;5070826;28;45227;-65
2024/02/27 10:41:00;;;;;;;;;27.25;25.00;;;;;8.07;77.17;101193.09;5074976;28;45305;-65
2024/02/27 10:43:25;;;;;;;;;21.25;14.00;;;;;8.10;77.13;101184.41;5061400;28;45411;-64
2024/02/27 10:45:50;;;;;;;;;63.25;46.00;;;;;8.19;77.37;101176.50;5063852;28;45245;-64
2024/02/27 10:48:19;;;;;;;;;40.25;33.25;;;;;8.35;77.21;101182.41;5078826;28;60397;-64
2024/02/27 10:50:46;;;;;;;;;30.50;24.50;;;;;8.51;76.23;101185.75;5067889;28;45406;-64
2024/02/27 10:53:12;;;;;;;;;43.75;34.75;;;;;8.62;75.84;101183.00;5071437;28;45575;-65
2024/02/27 10:55:38;;;;;;;;;29.00;19.50;;;;;8.68;75.21;101193.41;5075566;28;46571;-65
2024/02/27 10:58:04;;;;;;;;;32.75;26.25;;;;;8.65;74.70;101180.38;5069008;28;45239;-64
2024/02/27 11:00:29;;;;;;;;;31.75;25.25;;;;;8.64;74.50;101181.25;5064916;28;45219;-64
2024/02/27 11:02:58;;;;;;;;;36.75;30.00;;;;;8.68;74.61;101189.03;5086819;27;51818;-66
2024/02/27 11:05:27;;;;;;;;;28.25;23.50;;;;;8.73;74.66;101186.38;5060526;28;45963;-65
2024/02/27 11:07:56;;;;;;;;;30.25;22.50;;;;;8.88;73.99;101186.16;5069256;28;45277;-64
2024/02/27 11:10:25;;;;;;;;;31.00;25.50;;;;;9.06;74.24;101185.06;5063441;28;45450;-65
2024/02/27 11:12:53;;;;;;;;;33.50;23.75;;;;;9.24;73.72;101183.97;5077494;27;45334;-66